sensor_id;sensor_type;location;lat;lon;timestamp;pressure;altitude;pressure_sealevel;temperature;humidity
21203;BME280;10759;51.982;9.232;2023-02-19T00:01:43;100295.31;;;9.44;100.00
21203;BME280;10759;51.982;9.232;2023-02-19T00:04:15;100283.22;;;9.33;100.00
21203;BME280;10759;51.982;9.232;2023-02-19T00:06:43;100282.34;;;9.32;100.00
21203;BME280;10759;51.982;9.232;2023-02-19T00:09:13;100281.19;;;9.41;100.00
21203;BME280;10759;51.982;9.232;2023-02-19T00:11:42;100253.88;;;9.31;100.00
21203;BME280;10759;51.982;9.232;2023-02-19T00:14:14;100266.22;;;9.35;100.00
21203;BME280;10759;51.982;9.232;2023-02-19T00:16:42;100159.53;;;8.76;100.00
21203;BME280;10759;51.982;9.232;2023-02-19T00:19:13;100261.06;;;9.29;100.00
21203;BME280;10759;51.982;9.232;2023-02-19T00:21:42;100258.66;;;9.21;100.00
21203;BME280;10759;51.982;9.232;2023-02-19T00:24:11;100257.69;;;9.24;100.00
21203;BME280;10759;51.982;9.232;2023-02-19T00:26:40;100244.47;;;9.19;100.00
21203;BME280;10759;51.982;9.232;2023-02-19T00:29:11;100249.81;;;9.19;100.00
21203;BME280;10759;51.982;9.232;2023-02-19T00:31:41;100232.84;;;9.20;100.00
21203;BME280;10759;51.982;9.232;2023-02-19T00:34:10;100247.03;;;9.22;100.00
21203;BME280;10759;51.982;9.232;2023-02-19T00:36:41;100246.22;;;9.20;100.00
21203;BME280;10759;51.982;9.232;2023-02-19T00:39:12;100234.75;;;9.17;100.00
21203;BME280;10759;51.982;9.232;2023-02-19T00:41:41;100239.84;;;9.24;100.00
21203;BME280;10759;51.982;9.232;2023-02-19T00:44:10;100223.13;;;9.18;100.00
21203;BME280;10759;51.982;9.232;2023-02-19T00:46:40;100223.31;;;9.13;100.00
21203;BME280;10759;51.982;9.232;2023-02-19T00:49:13;100228.31;;;9.22;100.00
21203;BME280;10759;51.982;9.232;2023-02-19T00:51:43;100225.63;;;9.22;100.00
21203;BME280;10759;51.982;9.232;2023-02-19T00:54:12;100224.03;;;9.18;100.00
21203;BME280;10759;51.982;9.232;2023-02-19T00:56:40;100213.06;;;9.26;100.00
21203;BME280;10759;51.982;9.232;2023-02-19T00:59:08;100195.53;;;8.91;100.00
21203;BME280;10759;51.982;9.232;2023-02-19T01:01:37;100219.09;;;9.06;100.00
21203;BME280;10759;51.982;9.232;2023-02-19T01:04:05;100210.19;;;9.06;100.00
21203;BME280;10759;51.982;9.232;2023-02-19T01:06:33;100207.72;;;9.26;100.00
21203;BME280;10759;51.982;9.232;2023-02-19T01:09:04;100209.59;;;9.22;100.00
21203;BME280;10759;51.982;9.232;2023-02-19T01:11:32;100208.53;;;9.28;100.00
21203;BME280;10759;51.982;9.232;2023-02-19T01:14:01;100210.22;;;9.31;100.00
21203;BME280;10759;51.982;9.232;2023-02-19T01:16:29;100206.19;;;9.19;100.00
21203;BME280;10759;51.982;9.232;2023-02-19T01:18:58;100192.97;;;9.14;100.00
21203;BME280;10759;51.982;9.232;2023-02-19T01:21:27;100160.44;;;9.01;100.00
21203;BME280;10759;51.982;9.232;2023-02-19T01:23:56;100188.75;;;9.32;100.00
21203;BME280;10759;51.982;9.232;2023-02-19T01:26:28;100121.97;;;8.80;100.00
21203;BME280;10759;51.982;9.232;2023-02-19T01:28:57;100147.41;;;9.17;100.00
21203;BME280;10759;51.982;9.232;2023-02-19T01:31:26;100191.06;;;9.43;100.00
21203;BME280;10759;51.982;9.232;2023-02-19T01:33:56;100191.81;;;9.46;100.00
21203;BME280;10759;51.982;9.232;2023-02-19T01:36:25;100191.00;;;9.44;100.00
21203;BME280;10759;51.982;9.232;2023-02-19T01:38:53;100126.72;;;8.97;100.00
21203;BME280;10759;51.982;9.232;2023-02-19T01:41:24;100193.66;;;9.44;100.00
21203;BME280;10759;51.982;9.232;2023-02-19T01:43:57;100160.22;;;9.08;100.00
21203;BME280;10759;51.982;9.232;2023-02-19T01:46:26;100194.06;;;9.34;100.00
21203;BME280;10759;51.982;9.232;2023-02-19T01:48:56;100120.63;;;8.94;100.00
21203;BME280;10759;51.982;9.232;2023-02-19T01:51:26;100193.06;;;9.36;100.00
21203;BME280;10759;51.982;9.232;2023-02-19T01:53:56;100194.06;;;9.34;100.00
21203;BME280;10759;51.982;9.232;2023-02-19T01:56:27;100189.69;;;9.31;100.00
21203;BME280;10759;51.982;9.232;2023-02-19T01:58:59;99986.09;;;8.20;100.00
21203;BME280;10759;51.982;9.232;2023-02-19T02:01:27;100186.41;;;9.48;100.00
21203;BME280;10759;51.982;9.232;2023-02-19T02:03:55;100047.94;;;8.59;100.00
21203;BME280;10759;51.982;9.232;2023-02-19T02:06:26;100179.31;;;9.47;100.00
21203;BME280;10759;51.982;9.232;2023-02-19T02:08:57;100181.16;;;9.45;100.00
21203;BME280;10759;51.982;9.232;2023-02-19T02:11:46;100188.97;;;9.51;100.00
21203;BME280;10759;51.982;9.232;2023-02-19T02:14:18;100186.34;;;9.50;100.00
21203;BME280;10759;51.982;9.232;2023-02-19T02:16:54;100182.94;;;9.46;100.00
21203;BME280;10759;51.982;9.232;2023-02-19T02:19:33;100168.41;;;9.53;100.00
21203;BME280;10759;51.982;9.232;2023-02-19T02:22:09;100182.47;;;9.58;100.00
21203;BME280;10759;51.982;9.232;2023-02-19T02:24:56;100143.25;;;9.34;100.00
21203;BME280;10759;51.982;9.232;2023-02-19T02:27:38;100154.41;;;9.45;100.00
21203;BME280;10759;51.982;9.232;2023-02-19T02:30:24;100164.78;;;9.54;100.00
21203;BME280;10759;51.982;9.232;2023-02-19T02:33:00;100164.91;;;9.51;100.00
21203;BME280;10759;51.982;9.232;2023-02-19T02:35:33;100169.22;;;9.55;100.00
21203;BME280;10759;51.982;9.232;2023-02-19T02:38:06;100168.16;;;9.59;100.00
21203;BME280;10759;51.982;9.232;2023-02-19T02:40:41;100167.34;;;9.57;100.00
21203;BME280;10759;51.982;9.232;2023-02-19T02:43:11;100025.53;;;8.63;100.00
21203;BME280;10759;51.982;9.232;2023-02-19T02:45:40;100120.38;;;9.25;100.00
21203;BME280;10759;51.982;9.232;2023-02-19T02:48:22;100172.94;;;9.51;100.00
21203;BME280;10759;51.982;9.232;2023-02-19T02:50:55;100168.59;;;9.47;100.00
21203;BME280;10759;51.982;9.232;2023-02-19T02:53:32;100172.47;;;9.63;100.00
21203;BME280;10759;51.982;9.232;2023-02-19T02:56:19;100168.88;;;9.39;100.00
21203;BME280;10759;51.982;9.232;2023-02-19T02:58:48;100168.72;;;9.44;100.00
21203;BME280;10759;51.982;9.232;2023-02-19T03:01:21;100177.13;;;9.58;100.00
21203;BME280;10759;51.982;9.232;2023-02-19T03:04:10;100183.47;;;9.56;100.00
21203;BME280;10759;51.982;9.232;2023-02-19T03:06:41;100167.25;;;9.60;100.00
21203;BME280;10759;51.982;9.232;2023-02-19T03:09:15;100115.69;;;9.32;100.00
21203;BME280;10759;51.982;9.232;2023-02-19T03:11:46;100157.56;;;9.56;100.00
21203;BME280;10759;51.982;9.232;2023-02-19T03:14:36;100181.25;;;9.67;100.00
21203;BME280;10759;51.982;9.232;2023-02-19T03:17:29;100115.56;;;9.35;100.00
21203;BME280;10759;51.982;9.232;2023-02-19T03:20:20;100179.50;;;9.66;100.00
21203;BME280;10759;51.982;9.232;2023-02-19T03:22:51;100173.28;;;9.65;100.00
21203;BME280;10759;51.982;9.232;2023-02-19T03:25:23;100187.03;;;9.55;100.00
21203;BME280;10759;51.982;9.232;2023-02-19T03:28:14;100183.47;;;9.56;100.00
21203;BME280;10759;51.982;9.232;2023-02-19T03:30:48;100183.38;;;9.57;100.00
21203;BME280;10759;51.982;9.232;2023-02-19T03:33:22;100168.84;;;9.41;100.00
21203;BME280;10759;51.982;9.232;2023-02-19T03:35:55;100183.59;;;9.53;100.00
21203;BME280;10759;51.982;9.232;2023-02-19T03:38:29;100179.09;;;9.53;100.00
21203;BME280;10759;51.982;9.232;2023-02-19T03:41:05;100169.72;;;9.41;100.00
21203;BME280;10759;51.982;9.232;2023-02-19T03:43:37;100185.94;;;9.37;100.00
21203;BME280;10759;51.982;9.232;2023-02-19T03:46:11;100072.91;;;8.83;100.00
21203;BME280;10759;51.982;9.232;2023-02-19T03:48:47;100190.16;;;9.42;100.00
21203;BME280;10759;51.982;9.232;2023-02-19T03:51:28;100189.25;;;9.43;100.00
21203;BME280;10759;51.982;9.232;2023-02-19T03:54:09;100182.25;;;9.39;100.00
21203;BME280;10759;51.982;9.232;2023-02-19T03:56:43;100187.41;;;9.45;100.00
21203;BME280;10759;51.982;9.232;2023-02-19T03:59:16;100105.44;;;8.96;100.00
21203;BME280;10759;51.982;9.232;2023-02-19T04:01:51;100200.50;;;9.53;100.00
21203;BME280;10759;51.982;9.232;2023-02-19T04:04:24;100192.84;;;9.42;100.00
21203;BME280;10759;51.982;9.232;2023-02-19T04:06:56;100207.81;;;9.48;100.00
21203;BME280;10759;51.982;9.232;2023-02-19T04:09:30;100204.31;;;9.46;100.00
21203;BME280;10759;51.982;9.232;2023-02-19T04:12:06;100189.91;;;9.50;100.00
21203;BME280;10759;51.982;9.232;2023-02-19T04:14:37;100202.41;;;9.50;100.00
21203;BME280;10759;51.982;9.232;2023-02-19T04:17:12;100174.56;;;9.30;100.00
21203;BME280;10759;51.982;9.232;2023-02-19T04:19:44;100201.06;;;9.38;100.00
21203;BME280;10759;51.982;9.232;2023-02-19T04:22:15;100207.91;;;9.45;100.00
21203;BME280;10759;51.982;9.232;2023-02-19T04:24:47;100183.09;;;9.41;100.00
21203;BME280;10759;51.982;9.232;2023-02-19T04:27:16;100109.84;;;8.97;100.00
21203;BME280;10759;51.982;9.232;2023-02-19T04:29:44;100214.47;;;9.61;100.00
21203;BME280;10759;51.982;9.232;2023-02-19T04:32:12;100217.38;;;9.55;100.00
21203;BME280;10759;51.982;9.232;2023-02-19T04:34:40;100223.72;;;9.53;100.00
21203;BME280;10759;51.982;9.232;2023-02-19T04:37:10;100228.22;;;9.51;100.00
21203;BME280;10759;51.982;9.232;2023-02-19T04:39:38;100235.19;;;9.55;100.00
21203;BME280;10759;51.982;9.232;2023-02-19T04:42:06;100234.66;;;9.45;100.00
21203;BME280;10759;51.982;9.232;2023-02-19T04:44:34;100218.72;;;9.42;100.00
21203;BME280;10759;51.982;9.232;2023-02-19T04:47:02;100067.84;;;8.49;100.00
21203;BME280;10759;51.982;9.232;2023-02-19T04:49:30;100248.97;;;9.44;100.00
21203;BME280;10759;51.982;9.232;2023-02-19T04:51:58;100255.84;;;9.51;100.00
21203;BME280;10759;51.982;9.232;2023-02-19T04:54:27;100253.38;;;9.45;100.00
21203;BME280;10759;51.982;9.232;2023-02-19T04:56:55;100227.28;;;9.27;100.00
21203;BME280;10759;51.982;9.232;2023-02-19T04:59:23;100265.56;;;9.54;100.00
21203;BME280;10759;51.982;9.232;2023-02-19T05:01:51;100260.66;;;9.41;100.00
21203;BME280;10759;51.982;9.232;2023-02-19T05:04:19;100270.59;;;9.38;100.00
21203;BME280;10759;51.982;9.232;2023-02-19T05:06:47;100273.34;;;9.35;100.00
21203;BME280;10759;51.982;9.232;2023-02-19T05:09:15;100207.28;;;9.13;100.00
21203;BME280;10759;51.982;9.232;2023-02-19T05:11:44;100264.81;;;9.50;100.00
21203;BME280;10759;51.982;9.232;2023-02-19T05:14:12;100268.56;;;9.44;100.00
21203;BME280;10759;51.982;9.232;2023-02-19T05:16:40;100283.47;;;9.52;100.00
21203;BME280;10759;51.982;9.232;2023-02-19T05:19:09;100286.25;;;9.49;100.00
21203;BME280;10759;51.982;9.232;2023-02-19T05:21:37;100271.47;;;9.38;100.00
21203;BME280;10759;51.982;9.232;2023-02-19T05:24:06;100282.78;;;9.45;100.00
21203;BME280;10759;51.982;9.232;2023-02-19T05:26:34;100276.09;;;9.33;100.00
21203;BME280;10759;51.982;9.232;2023-02-19T05:29:03;100284.41;;;9.51;100.00
21203;BME280;10759;51.982;9.232;2023-02-19T05:31:31;100288.25;;;9.42;100.00
21203;BME280;10759;51.982;9.232;2023-02-19T05:34:00;100292.63;;;9.44;100.00
21203;BME280;10759;51.982;9.232;2023-02-19T05:36:29;100290.09;;;9.40;100.00
21203;BME280;10759;51.982;9.232;2023-02-19T05:38:57;100289.81;;;9.22;100.00
21203;BME280;10759;51.982;9.232;2023-02-19T05:41:26;100297.75;;;9.26;100.00
21203;BME280;10759;51.982;9.232;2023-02-19T05:43:55;100290.88;;;9.18;100.00
21203;BME280;10759;51.982;9.232;2023-02-19T05:46:27;100310.88;;;9.33;100.00
21203;BME280;10759;51.982;9.232;2023-02-19T05:48:56;100313.69;;;9.29;100.00
21203;BME280;10759;51.982;9.232;2023-02-19T05:51:25;100310.91;;;9.32;100.00
21203;BME280;10759;51.982;9.232;2023-02-19T05:53:54;100266.16;;;9.10;100.00
21203;BME280;10759;51.982;9.232;2023-02-19T05:56:29;100322.31;;;9.37;100.00
21203;BME280;10759;51.982;9.232;2023-02-19T05:58:58;100311.91;;;9.28;100.00
21203;BME280;10759;51.982;9.232;2023-02-19T06:01:28;100323.50;;;9.28;100.00
21203;BME280;10759;51.982;9.232;2023-02-19T06:03:57;100331.53;;;9.28;100.00
21203;BME280;10759;51.982;9.232;2023-02-19T06:06:25;100338.34;;;9.37;100.00
21203;BME280;10759;51.982;9.232;2023-02-19T06:08:53;100342.06;;;9.33;100.00
21203;BME280;10759;51.982;9.232;2023-02-19T06:11:22;100378.78;;;8.99;100.00
21203;BME280;10759;51.982;9.232;2023-02-19T06:13:50;100388.25;;;8.52;100.00
21203;BME280;10759;51.982;9.232;2023-02-19T06:16:18;100403.19;;;7.93;100.00
21203;BME280;10759;51.982;9.232;2023-02-19T06:18:49;100403.84;;;7.69;100.00
21203;BME280;10759;51.982;9.232;2023-02-19T06:21:18;100422.63;;;7.64;100.00
21203;BME280;10759;51.982;9.232;2023-02-19T06:23:46;100315.44;;;6.78;100.00
21203;BME280;10759;51.982;9.232;2023-02-19T06:26:16;100441.91;;;7.38;100.00
21203;BME280;10759;51.982;9.232;2023-02-19T06:28:46;100452.94;;;7.23;100.00
21203;BME280;10759;51.982;9.232;2023-02-19T06:31:16;100467.56;;;7.06;100.00
21203;BME280;10759;51.982;9.232;2023-02-19T06:33:45;100470.34;;;6.99;100.00
21203;BME280;10759;51.982;9.232;2023-02-19T06:36:15;100486.72;;;6.82;100.00
21203;BME280;10759;51.982;9.232;2023-02-19T06:38:44;100472.03;;;6.62;100.00
21203;BME280;10759;51.982;9.232;2023-02-19T06:41:12;100489.69;;;6.66;100.00
21203;BME280;10759;51.982;9.232;2023-02-19T06:43:40;100491.22;;;6.80;100.00
21203;BME280;10759;51.982;9.232;2023-02-19T06:46:09;100489.50;;;6.76;100.00
21203;BME280;10759;51.982;9.232;2023-02-19T06:48:39;100447.53;;;6.45;100.00
21203;BME280;10759;51.982;9.232;2023-02-19T06:51:10;100515.97;;;6.85;100.00
21203;BME280;10759;51.982;9.232;2023-02-19T06:53:40;100501.31;;;6.62;100.00
21203;BME280;10759;51.982;9.232;2023-02-19T06:56:21;100535.81;;;6.69;100.00
21203;BME280;10759;51.982;9.232;2023-02-19T06:58:50;100536.66;;;6.72;100.00
21203;BME280;10759;51.982;9.232;2023-02-19T07:01:18;100543.41;;;6.88;100.00
21203;BME280;10759;51.982;9.232;2023-02-19T07:03:46;100487.94;;;6.65;100.00
21203;BME280;10759;51.982;9.232;2023-02-19T07:06:14;100448.66;;;6.32;100.00
21203;BME280;10759;51.982;9.232;2023-02-19T07:08:44;100565.53;;;6.92;100.00
21203;BME280;10759;51.982;9.232;2023-02-19T07:11:12;100476.84;;;6.42;100.00
21203;BME280;10759;51.982;9.232;2023-02-19T07:13:39;100568.31;;;6.87;100.00
21203;BME280;10759;51.982;9.232;2023-02-19T07:16:08;100573.72;;;6.83;100.00
21203;BME280;10759;51.982;9.232;2023-02-19T07:18:37;100598.50;;;6.86;100.00
21203;BME280;10759;51.982;9.232;2023-02-19T07:21:07;100592.38;;;6.83;100.00
21203;BME280;10759;51.982;9.232;2023-02-19T07:23:37;100610.00;;;6.90;100.00
21203;BME280;10759;51.982;9.232;2023-02-19T07:26:08;100612.72;;;6.87;100.00
21203;BME280;10759;51.982;9.232;2023-02-19T07:28:37;100555.97;;;6.34;100.00
21203;BME280;10759;51.982;9.232;2023-02-19T07:31:05;100497.94;;;6.06;100.00
21203;BME280;10759;51.982;9.232;2023-02-19T07:33:33;100615.56;;;6.76;100.00
21203;BME280;10759;51.982;9.232;2023-02-19T07:36:01;100598.03;;;6.64;100.00
21203;BME280;10759;51.982;9.232;2023-02-19T07:38:29;100646.56;;;6.80;100.00
21203;BME280;10759;51.982;9.232;2023-02-19T07:40:59;100651.19;;;6.71;100.00
21203;BME280;10759;51.982;9.232;2023-02-19T07:43:30;100657.38;;;6.71;100.00
21203;BME280;10759;51.982;9.232;2023-02-19T07:46:01;100676.16;;;6.63;100.00
21203;BME280;10759;51.982;9.232;2023-02-19T07:48:29;100672.19;;;6.36;100.00
21203;BME280;10759;51.982;9.232;2023-02-19T07:50:58;100676.44;;;6.48;100.00
21203;BME280;10759;51.982;9.232;2023-02-19T07:53:27;100685.97;;;6.61;100.00
21203;BME280;10759;51.982;9.232;2023-02-19T07:55:58;100688.75;;;6.55;100.00
21203;BME280;10759;51.982;9.232;2023-02-19T07:58:26;100650.88;;;6.38;100.00
21203;BME280;10759;51.982;9.232;2023-02-19T08:00:56;100692.22;;;6.59;100.00
21203;BME280;10759;51.982;9.232;2023-02-19T08:03:24;100697.38;;;6.70;100.00
21203;BME280;10759;51.982;9.232;2023-02-19T08:05:51;100509.47;;;5.48;100.00
21203;BME280;10759;51.982;9.232;2023-02-19T08:08:20;100703.72;;;6.62;100.00
21203;BME280;10759;51.982;9.232;2023-02-19T08:10:48;100706.56;;;6.50;100.00
21203;BME280;10759;51.982;9.232;2023-02-19T08:13:34;100689.06;;;6.34;100.00
21203;BME280;10759;51.982;9.232;2023-02-19T08:16:12;100721.59;;;6.54;100.00
21203;BME280;10759;51.982;9.232;2023-02-19T08:18:52;100732.28;;;6.53;100.00
21203;BME280;10759;51.982;9.232;2023-02-19T08:21:20;100729.56;;;6.54;100.00
21203;BME280;10759;51.982;9.232;2023-02-19T08:23:48;100741.16;;;6.52;100.00
21203;BME280;10759;51.982;9.232;2023-02-19T08:26:17;100741.88;;;6.61;100.00
21203;BME280;10759;51.982;9.232;2023-02-19T08:28:45;100712.03;;;6.42;100.00
21203;BME280;10759;51.982;9.232;2023-02-19T08:31:14;100756.06;;;6.65;100.00
21203;BME280;10759;51.982;9.232;2023-02-19T08:33:42;100746.47;;;6.52;100.00
21203;BME280;10759;51.982;9.232;2023-02-19T08:36:10;100692.97;;;6.11;100.00
21203;BME280;10759;51.982;9.232;2023-02-19T08:38:38;100756.34;;;6.45;100.00
21203;BME280;10759;51.982;9.232;2023-02-19T08:41:08;100748.56;;;6.33;100.00
21203;BME280;10759;51.982;9.232;2023-02-19T08:43:37;100747.75;;;6.24;100.00
21203;BME280;10759;51.982;9.232;2023-02-19T08:46:05;100770.09;;;6.13;100.00
21203;BME280;10759;51.982;9.232;2023-02-19T08:48:37;100783.66;;;5.96;100.00
21203;BME280;10759;51.982;9.232;2023-02-19T08:51:08;100768.63;;;5.87;100.00
21203;BME280;10759;51.982;9.232;2023-02-19T08:53:39;100795.16;;;5.95;100.00
21203;BME280;10759;51.982;9.232;2023-02-19T08:56:09;100801.47;;;5.85;100.00
21203;BME280;10759;51.982;9.232;2023-02-19T08:58:38;100775.06;;;5.68;100.00
21203;BME280;10759;51.982;9.232;2023-02-19T09:01:07;100743.44;;;5.43;100.00
21203;BME280;10759;51.982;9.232;2023-02-19T09:03:39;100781.50;;;5.48;100.00
21203;BME280;10759;51.982;9.232;2023-02-19T09:06:11;100820.09;;;5.83;100.00
21203;BME280;10759;51.982;9.232;2023-02-19T09:08:40;100650.06;;;5.00;100.00
21203;BME280;10759;51.982;9.232;2023-02-19T09:11:08;100826.16;;;5.99;100.00
21203;BME280;10759;51.982;9.232;2023-02-19T09:13:36;100824.19;;;6.16;100.00
21203;BME280;10759;51.982;9.232;2023-02-19T09:16:05;100731.69;;;5.63;100.00
21203;BME280;10759;51.982;9.232;2023-02-19T09:18:34;100754.75;;;5.62;100.00
21203;BME280;10759;51.982;9.232;2023-02-19T09:21:04;100754.63;;;5.74;100.00
21203;BME280;10759;51.982;9.232;2023-02-19T09:23:33;100774.00;;;5.82;100.00
21203;BME280;10759;51.982;9.232;2023-02-19T09:26:03;100794.81;;;6.22;100.00
21203;BME280;10759;51.982;9.232;2023-02-19T09:28:33;100836.09;;;6.54;100.00
21203;BME280;10759;51.982;9.232;2023-02-19T09:31:03;100830.00;;;6.44;100.00
21203;BME280;10759;51.982;9.232;2023-02-19T09:33:32;100850.59;;;6.32;100.00
21203;BME280;10759;51.982;9.232;2023-02-19T09:36:00;100833.13;;;6.11;100.00
21203;BME280;10759;51.982;9.232;2023-02-19T09:38:30;100854.38;;;6.15;100.00
21203;BME280;10759;51.982;9.232;2023-02-19T09:41:05;100871.97;;;6.26;100.00
21203;BME280;10759;51.982;9.232;2023-02-19T09:43:35;100870.09;;;6.34;100.00
21203;BME280;10759;51.982;9.232;2023-02-19T09:46:08;100834.56;;;6.38;100.00
21203;BME280;10759;51.982;9.232;2023-02-19T09:48:39;100884.81;;;6.62;100.00
21203;BME280;10759;51.982;9.232;2023-02-19T09:51:08;100887.50;;;6.59;100.00
21203;BME280;10759;51.982;9.232;2023-02-19T09:53:41;100888.50;;;6.51;100.00
21203;BME280;10759;51.982;9.232;2023-02-19T09:56:11;100837.28;;;6.32;100.00
21203;BME280;10759;51.982;9.232;2023-02-19T09:58:45;100909.03;;;6.42;100.00
21203;BME280;10759;51.982;9.232;2023-02-19T10:01:14;100894.72;;;6.51;100.00
21203;BME280;10759;51.982;9.232;2023-02-19T10:03:44;100907.75;;;6.71;100.00
21203;BME280;10759;51.982;9.232;2023-02-19T10:06:17;100880.69;;;6.40;100.00
21203;BME280;10759;51.982;9.232;2023-02-19T10:08:49;100926.22;;;6.85;100.00
21203;BME280;10759;51.982;9.232;2023-02-19T10:11:18;100931.44;;;6.94;100.00
21203;BME280;10759;51.982;9.232;2023-02-19T10:13:48;100927.25;;;6.75;100.00
21203;BME280;10759;51.982;9.232;2023-02-19T10:16:20;100929.78;;;6.84;100.00
21203;BME280;10759;51.982;9.232;2023-02-19T10:18:49;100829.41;;;6.22;100.00
21203;BME280;10759;51.982;9.232;2023-02-19T10:21:20;100932.53;;;6.78;100.00
21203;BME280;10759;51.982;9.232;2023-02-19T10:23:52;100965.09;;;6.98;100.00
21203;BME280;10759;51.982;9.232;2023-02-19T10:26:22;100940.59;;;6.72;100.00
21203;BME280;10759;51.982;9.232;2023-02-19T10:28:50;100965.16;;;6.95;100.00
21203;BME280;10759;51.982;9.232;2023-02-19T10:31:21;100981.97;;;7.00;100.00
21203;BME280;10759;51.982;9.232;2023-02-19T10:33:50;100984.78;;;6.88;100.00
21203;BME280;10759;51.982;9.232;2023-02-19T10:36:24;100990.16;;;6.85;100.00
21203;BME280;10759;51.982;9.232;2023-02-19T10:38:56;100988.16;;;7.02;100.00
21203;BME280;10759;51.982;9.232;2023-02-19T10:41:25;100994.31;;;7.07;100.00
21203;BME280;10759;51.982;9.232;2023-02-19T10:43:56;101000.50;;;7.09;100.00
21203;BME280;10759;51.982;9.232;2023-02-19T10:46:28;100937.09;;;6.70;100.00
21203;BME280;10759;51.982;9.232;2023-02-19T10:48:59;100889.94;;;6.08;100.00
21203;BME280;10759;51.982;9.232;2023-02-19T10:51:33;101002.00;;;6.62;100.00
21203;BME280;10759;51.982;9.232;2023-02-19T10:54:06;100944.66;;;6.31;100.00
21203;BME280;10759;51.982;9.232;2023-02-19T10:56:34;100957.88;;;6.40;100.00
21203;BME280;10759;51.982;9.232;2023-02-19T10:59:23;101005.59;;;6.58;100.00
21203;BME280;10759;51.982;9.232;2023-02-19T11:01:55;100804.34;;;5.66;100.00
21203;BME280;10759;51.982;9.232;2023-02-19T11:04:27;101002.19;;;7.14;100.00
21203;BME280;10759;51.982;9.232;2023-02-19T11:07:07;100977.56;;;6.99;100.00
21203;BME280;10759;51.982;9.232;2023-02-19T11:09:39;100976.28;;;6.58;100.00
21203;BME280;10759;51.982;9.232;2023-02-19T11:12:09;100961.13;;;6.62;100.00
21203;BME280;10759;51.982;9.232;2023-02-19T11:14:40;100966.63;;;6.50;100.00
21203;BME280;10759;51.982;9.232;2023-02-19T11:17:20;100995.53;;;6.82;100.00
21203;BME280;10759;51.982;9.232;2023-02-19T11:19:51;101008.38;;;7.19;100.00
21203;BME280;10759;51.982;9.232;2023-02-19T11:22:28;100837.59;;;6.07;100.00
21203;BME280;10759;51.982;9.232;2023-02-19T11:25:04;100975.78;;;6.98;100.00
21203;BME280;10759;51.982;9.232;2023-02-19T11:27:32;101006.34;;;7.35;99.86
21203;BME280;10759;51.982;9.232;2023-02-19T11:30:31;101030.13;;;7.51;99.51
21203;BME280;10759;51.982;9.232;2023-02-19T11:33:18;100835.63;;;6.21;100.00
21203;BME280;10759;51.982;9.232;2023-02-19T11:35:48;101042.50;;;7.56;100.00
21203;BME280;10759;51.982;9.232;2023-02-19T11:38:17;101036.06;;;7.67;98.50
21203;BME280;10759;51.982;9.232;2023-02-19T11:40:51;101030.72;;;7.70;94.30
21203;BME280;10759;51.982;9.232;2023-02-19T11:43:37;101026.25;;;7.71;91.48
21203;BME280;10759;51.982;9.232;2023-02-19T11:46:12;100962.13;;;7.21;91.76
21203;BME280;10759;51.982;9.232;2023-02-19T11:48:51;100998.91;;;7.58;93.10
21203;BME280;10759;51.982;9.232;2023-02-19T11:51:52;101026.16;;;7.77;94.44
21203;BME280;10759;51.982;9.232;2023-02-19T11:54:35;101003.50;;;7.48;95.47
21203;BME280;10759;51.982;9.232;2023-02-19T11:57:16;101022.88;;;7.60;93.40
21203;BME280;10759;51.982;9.232;2023-02-19T11:59:55;100988.84;;;7.74;91.54
21203;BME280;10759;51.982;9.232;2023-02-19T12:02:38;101014.31;;;7.95;92.43
21203;BME280;10759;51.982;9.232;2023-02-19T12:08:24;100974.44;;;7.84;92.25
21203;BME280;10759;51.982;9.232;2023-02-19T12:11:07;100992.97;;;7.92;91.93
21203;BME280;10759;51.982;9.232;2023-02-19T12:13:55;101001.66;;;8.05;93.72
21203;BME280;10759;51.982;9.232;2023-02-19T12:16:29;101019.44;;;8.06;93.40
21203;BME280;10759;51.982;9.232;2023-02-19T12:19:12;101018.38;;;8.16;95.16
21203;BME280;10759;51.982;9.232;2023-02-19T12:21:52;101019.16;;;8.23;92.63
21203;BME280;10759;51.982;9.232;2023-02-19T12:24:43;100989.38;;;7.96;92.16
21203;BME280;10759;51.982;9.232;2023-02-19T12:27:24;101017.50;;;8.14;90.11
21203;BME280;10759;51.982;9.232;2023-02-19T12:30:05;101021.91;;;8.18;88.24
21203;BME280;10759;51.982;9.232;2023-02-19T12:33:00;101012.97;;;8.19;90.28
21203;BME280;10759;51.982;9.232;2023-02-19T12:35:52;101015.38;;;8.34;90.13
21203;BME280;10759;51.982;9.232;2023-02-19T12:38:29;101008.06;;;7.94;91.67
21203;BME280;10759;51.982;9.232;2023-02-19T12:41:15;100978.97;;;7.81;90.16
21203;BME280;10759;51.982;9.232;2023-02-19T12:43:51;101031.88;;;8.08;90.58
21203;BME280;10759;51.982;9.232;2023-02-19T12:46:27;100857.56;;;7.02;90.01
21203;BME280;10759;51.982;9.232;2023-02-19T12:49:00;101030.13;;;8.04;90.33
21203;BME280;10759;51.982;9.232;2023-02-19T12:51:38;101021.25;;;8.05;89.77
21203;BME280;10759;51.982;9.232;2023-02-19T12:54:12;101031.00;;;8.08;85.41
21203;BME280;10759;51.982;9.232;2023-02-19T12:56:47;101039.72;;;8.17;91.04
21203;BME280;10759;51.982;9.232;2023-02-19T12:59:21;101046.50;;;7.84;89.19
21203;BME280;10759;51.982;9.232;2023-02-19T13:01:59;101046.44;;;7.87;91.65
21203;BME280;10759;51.982;9.232;2023-02-19T13:04:36;101046.78;;;8.20;88.62
21203;BME280;10759;51.982;9.232;2023-02-19T13:07:10;101055.44;;;8.34;88.94
21203;BME280;10759;51.982;9.232;2023-02-19T13:09:44;101058.00;;;8.39;88.42
21203;BME280;10759;51.982;9.232;2023-02-19T13:12:18;101076.72;;;8.41;86.90
21203;BME280;10759;51.982;9.232;2023-02-19T13:14:50;101082.16;;;8.33;85.34
21203;BME280;10759;51.982;9.232;2023-02-19T13:17:24;101071.78;;;8.16;84.25
21203;BME280;10759;51.982;9.232;2023-02-19T13:19:57;101065.50;;;8.18;86.13